Aviation Digital Data Service (ADDS)

Output produced by METARs form (1822 UTC 18 April 2019)
found at http://www.aviationweather.gov/metar/data/
 
METAR text: UHWW 181800Z 30003MPS 9999 NSC 02/M12 Q1015 R25L/0///70 NOSIG RMK QFE760
Conditions at: UHWW (VLADIVOSTOK , RU) observed 1800 UTC 18 April 2019
Temperature: 2.0°C (36°F)
Dewpoint: -12.0°C (10°F) [RH = 35%]
Pressure (altimeter): 29.97 inches Hg (1015.0 mb)
Winds: from the WNW (300 degrees) at 7 MPH (6 knots; 3.1 m/s)
Visibility: 6 or more miles (10+ km)
Ceiling: at least 12,000 feet AGL
Clouds: sky clear below 12,000 feet AGL
Weather: no significant weather observed at this time

METAR text: UHWW 181730Z 30003MPS 9999 NSC 03/M11 Q1015 R25L/0///70 NOSIG RMK QFE760
Conditions at: UHWW (VLADIVOSTOK , RU) observed 1730 UTC 18 April 2019
Temperature: 3.0°C (37°F)
Dewpoint: -11.0°C (12°F) [RH = 35%]
Pressure (altimeter): 29.97 inches Hg (1015.0 mb)
Winds: from the WNW (300 degrees) at 7 MPH (6 knots; 3.1 m/s)
Visibility: 6 or more miles (10+ km)
Ceiling: at least 12,000 feet AGL
Clouds: sky clear below 12,000 feet AGL
Weather: no significant weather observed at this time

METAR text: UHWW 181700Z 28003MPS 9999 NSC 03/M12 Q1015 R25L/0///70 NOSIG RMK QFE760
Conditions at: UHWW (VLADIVOSTOK , RU) observed 1700 UTC 18 April 2019
Temperature: 3.0°C (37°F)
Dewpoint: -12.0°C (10°F) [RH = 32%]
Pressure (altimeter): 29.97 inches Hg (1015.0 mb)
Winds: from the W (280 degrees) at 7 MPH (6 knots; 3.1 m/s)
Visibility: 6 or more miles (10+ km)
Ceiling: at least 12,000 feet AGL
Clouds: sky clear below 12,000 feet AGL
Weather: no significant weather observed at this time

METAR text: UHWW 181630Z 28002MPS 9999 NSC 03/M11 Q1015 R25L/0///70 NOSIG RMK QFE760
Conditions at: UHWW (VLADIVOSTOK , RU) observed 1630 UTC 18 April 2019
Temperature: 3.0°C (37°F)
Dewpoint: -11.0°C (12°F) [RH = 35%]
Pressure (altimeter): 29.97 inches Hg (1015.0 mb)
Winds: from the W (280 degrees) at 5 MPH (4 knots; 2.1 m/s)
Visibility: 6 or more miles (10+ km)
Ceiling: at least 12,000 feet AGL
Clouds: sky clear below 12,000 feet AGL
Weather: no significant weather observed at this time

METAR text: UHWW 181600Z 29003MPS 9999 NSC 03/M11 Q1015 R25L/0///70 NOSIG RMK QFE760
Conditions at: UHWW (VLADIVOSTOK , RU) observed 1600 UTC 18 April 2019
Temperature: 3.0°C (37°F)
Dewpoint: -11.0°C (12°F) [RH = 35%]
Pressure (altimeter): 29.97 inches Hg (1015.0 mb)
Winds: from the WNW (290 degrees) at 7 MPH (6 knots; 3.1 m/s)
Visibility: 6 or more miles (10+ km)
Ceiling: at least 12,000 feet AGL
Clouds: sky clear below 12,000 feet AGL
Weather: no significant weather observed at this time

METAR text: UHWW 181530Z 30003MPS 9999 NSC 03/M11 Q1014 R25L/0///70 NOSIG RMK QFE760
Conditions at: UHWW (VLADIVOSTOK , RU) observed 1530 UTC 18 April 2019
Temperature: 3.0°C (37°F)
Dewpoint: -11.0°C (12°F) [RH = 35%]
Pressure (altimeter): 29.94 inches Hg (1014.0 mb)
Winds: from the WNW (300 degrees) at 7 MPH (6 knots; 3.1 m/s)
Visibility: 6 or more miles (10+ km)
Ceiling: at least 12,000 feet AGL
Clouds: sky clear below 12,000 feet AGL
Weather: no significant weather observed at this time

METAR text: UHWW 181500Z 31003MPS 9999 NSC 04/M11 Q1014 R25L/0///70 NOSIG RMK QFE760
Conditions at: UHWW (VLADIVOSTOK , RU) observed 1500 UTC 18 April 2019
Temperature: 4.0°C (39°F)
Dewpoint: -11.0°C (12°F) [RH = 32%]
Pressure (altimeter): 29.94 inches Hg (1014.0 mb)
Winds: from the NW (310 degrees) at 7 MPH (6 knots; 3.1 m/s)
Visibility: 6 or more miles (10+ km)
Ceiling: at least 12,000 feet AGL
Clouds: sky clear below 12,000 feet AGL
Weather: no significant weather observed at this time

METAR text: UHWW 181430Z 32003MPS 9999 NSC 04/M10 Q1014 R25L/0///70 NOSIG RMK QFE759
Conditions at: UHWW (VLADIVOSTOK , RU) observed 1430 UTC 18 April 2019
Temperature: 4.0°C (39°F)
Dewpoint: -10.0°C (14°F) [RH = 35%]
Pressure (altimeter): 29.94 inches Hg (1014.0 mb)
Winds: from the NW (320 degrees) at 7 MPH (6 knots; 3.1 m/s)
Visibility: 6 or more miles (10+ km)
Ceiling: at least 12,000 feet AGL
Clouds: sky clear below 12,000 feet AGL
Weather: no significant weather observed at this time

METAR text: UHWW 181400Z 31002MPS 9999 NSC 04/M09 Q1014 R25L/0///70 NOSIG RMK QFE759
Conditions at: UHWW (VLADIVOSTOK , RU) observed 1400 UTC 18 April 2019
Temperature: 4.0°C (39°F)
Dewpoint: -9.0°C (16°F) [RH = 38%]
Pressure (altimeter): 29.94 inches Hg (1014.0 mb)
Winds: from the NW (310 degrees) at 5 MPH (4 knots; 2.1 m/s)
Visibility: 6 or more miles (10+ km)
Ceiling: at least 12,000 feet AGL
Clouds: sky clear below 12,000 feet AGL
Weather: no significant weather observed at this time

METAR text: UHWW 181330Z 30002MPS 9999 NSC 03/M08 Q1013 R25L/0///70 NOSIG RMK QFE759
Conditions at: UHWW (VLADIVOSTOK , RU) observed 1330 UTC 18 April 2019
Temperature: 3.0°C (37°F)
Dewpoint: -8.0°C (18°F) [RH = 44%]
Pressure (altimeter): 29.91 inches Hg (1013.0 mb)
Winds: from the WNW (300 degrees) at 5 MPH (4 knots; 2.1 m/s)
Visibility: 6 or more miles (10+ km)
Ceiling: at least 12,000 feet AGL
Clouds: sky clear below 12,000 feet AGL
Weather: no significant weather observed at this time

METAR text: UHWW 181300Z 35003MPS 9999 NSC 05/M08 Q1013 R25L/0///70 NOSIG RMK QFE759
Conditions at: UHWW (VLADIVOSTOK , RU) observed 1300 UTC 18 April 2019
Temperature: 5.0°C (41°F)
Dewpoint: -8.0°C (18°F) [RH = 38%]
Pressure (altimeter): 29.91 inches Hg (1013.0 mb)
Winds: from the N (350 degrees) at 7 MPH (6 knots; 3.1 m/s)
Visibility: 6 or more miles (10+ km)
Ceiling: at least 12,000 feet AGL
Clouds: sky clear below 12,000 feet AGL
Weather: no significant weather observed at this time

METAR text: UHWW 181230Z 35003MPS 9999 NSC 05/M08 Q1013 R25L/0///70 NOSIG RMK QFE759
Conditions at: UHWW (VLADIVOSTOK , RU) observed 1230 UTC 18 April 2019
Temperature: 5.0°C (41°F)
Dewpoint: -8.0°C (18°F) [RH = 38%]
Pressure (altimeter): 29.91 inches Hg (1013.0 mb)
Winds: from the N (350 degrees) at 7 MPH (6 knots; 3.1 m/s)
Visibility: 6 or more miles (10+ km)
Ceiling: at least 12,000 feet AGL
Clouds: sky clear below 12,000 feet AGL
Weather: no significant weather observed at this time

METAR text: UHWW 181200Z 35004MPS 9999 NSC 05/M08 Q1013 R25L/0///70 NOSIG RMK QFE759
Conditions at: UHWW (VLADIVOSTOK , RU) observed 1200 UTC 18 April 2019
Temperature: 5.0°C (41°F)
Dewpoint: -8.0°C (18°F) [RH = 38%]
Pressure (altimeter): 29.91 inches Hg (1013.0 mb)
Winds: from the N (350 degrees) at 9 MPH (8 knots; 4.1 m/s)
Visibility: 6 or more miles (10+ km)
Ceiling: at least 12,000 feet AGL
Clouds: sky clear below 12,000 feet AGL
Weather: no significant weather observed at this time

METAR text: UHWW 181130Z 35005MPS 9999 NSC 06/M08 Q1013 R25L/0///70 NOSIG RMK QFE758
Conditions at: UHWW (VLADIVOSTOK , RU) observed 1130 UTC 18 April 2019
Temperature: 6.0°C (43°F)
Dewpoint: -8.0°C (18°F) [RH = 36%]
Pressure (altimeter): 29.91 inches Hg (1013.0 mb)
Winds: from the N (350 degrees) at 12 MPH (10 knots; 5.1 m/s)
Visibility: 6 or more miles (10+ km)
Ceiling: at least 12,000 feet AGL
Clouds: sky clear below 12,000 feet AGL
Weather: no significant weather observed at this time

METAR text: UHWW 181100Z 34006MPS 9999 NSC 06/M08 Q1012 R25L/0///70 NOSIG RMK QFE758
Conditions at: UHWW (VLADIVOSTOK , RU) observed 1100 UTC 18 April 2019
Temperature: 6.0°C (43°F)
Dewpoint: -8.0°C (18°F) [RH = 36%]
Pressure (altimeter): 29.88 inches Hg (1012.0 mb)
Winds: from the NNW (340 degrees) at 14 MPH (12 knots; 6.2 m/s)
Visibility: 6 or more miles (10+ km)
Ceiling: at least 12,000 feet AGL
Clouds: sky clear below 12,000 feet AGL
Weather: no significant weather observed at this time

METAR text: UHWW 181030Z 34007G15MPS 9999 NSC 07/M09 Q1012 R25L/0///70 NOSIG RMK QFE758
Conditions at: UHWW (VLADIVOSTOK , RU) observed 1030 UTC 18 April 2019
Temperature: 7.0°C (45°F)
Dewpoint: -9.0°C (16°F) [RH = 31%]
Pressure (altimeter): 29.88 inches Hg (1012.0 mb)
Winds: from the NNW (340 degrees) at 16 MPH (14 knots; 7.2 m/s)
gusting to 33 MPH (29 knots; 14.9 m/s)
Visibility: 6 or more miles (10+ km)
Ceiling: at least 12,000 feet AGL
Clouds: sky clear below 12,000 feet AGL
Weather: no significant weather observed at this time

METAR text: UHWW 181000Z 34006G13MPS 9999 NSC 07/M09 Q1011 R25L/0///70 NOSIG RMK QFE757
Conditions at: UHWW (VLADIVOSTOK , RU) observed 1000 UTC 18 April 2019
Temperature: 7.0°C (45°F)
Dewpoint: -9.0°C (16°F) [RH = 31%]
Pressure (altimeter): 29.85 inches Hg (1011.0 mb)
Winds: from the NNW (340 degrees) at 14 MPH (12 knots; 6.2 m/s)
gusting to 29 MPH (25 knots; 12.9 m/s)
Visibility: 6 or more miles (10+ km)
Ceiling: at least 12,000 feet AGL
Clouds: sky clear below 12,000 feet AGL
Weather: no significant weather observed at this time

METAR text: UHWW 180930Z 33008G16MPS 9999 NSC 07/M09 Q1010 R25L/0///70 TEMPO 34010G15MPS RMK QFE756
Conditions at: UHWW (VLADIVOSTOK , RU) observed 0930 UTC 18 April 2019
Temperature: 7.0°C (45°F)
Dewpoint: -9.0°C (16°F) [RH = 31%]
Pressure (altimeter): 29.82 inches Hg (1010.0 mb)
Winds: from the NNW (330 degrees) at 18 MPH (16 knots; 8.2 m/s)
gusting to 36 MPH (31 knots; 15.9 m/s)
Visibility: 6 or more miles (10+ km)
Ceiling: at least 12,000 feet AGL
Clouds: sky clear below 12,000 feet AGL
Weather: no significant weather observed at this time

METAR text: UHWW 180900Z 32007G12MPS 9999 NSC 08/M09 Q1010 R25L/0///70 TEMPO 34010G15MPS RMK QFE756
Conditions at: UHWW (VLADIVOSTOK , RU) observed 0900 UTC 18 April 2019
Temperature: 8.0°C (46°F)
Dewpoint: -9.0°C (16°F) [RH = 29%]
Pressure (altimeter): 29.82 inches Hg (1010.0 mb)
Winds: from the NW (320 degrees) at 16 MPH (14 knots; 7.2 m/s)
gusting to 26 MPH (23 knots; 11.8 m/s)
Visibility: 6 or more miles (10+ km)
Ceiling: at least 12,000 feet AGL
Clouds: sky clear below 12,000 feet AGL
Weather: no significant weather observed at this time

METAR text: UHWW 180830Z 33008G13MPS 9999 NSC 08/M08 Q1009 R25L/0///70 TEMPO 34010G15MPS RMK QFE756
Conditions at: UHWW (VLADIVOSTOK , RU) observed 0830 UTC 18 April 2019
Temperature: 8.0°C (46°F)
Dewpoint: -8.0°C (18°F) [RH = 31%]
Pressure (altimeter): 29.79 inches Hg (1009.0 mb)
Winds: from the NNW (330 degrees) at 18 MPH (16 knots; 8.2 m/s)
gusting to 29 MPH (25 knots; 12.9 m/s)
Visibility: 6 or more miles (10+ km)
Ceiling: at least 12,000 feet AGL
Clouds: sky clear below 12,000 feet AGL
Weather: no significant weather observed at this time

METAR text: UHWW 180800Z 32009G14MPS 9999 NSC 09/M09 Q1008 R25L/0///70 NOSIG RMK QFE755
Conditions at: UHWW (VLADIVOSTOK , RU) observed 0800 UTC 18 April 2019
Temperature: 9.0°C (48°F)
Dewpoint: -9.0°C (16°F) [RH = 27%]
Pressure (altimeter): 29.76 inches Hg (1008.0 mb)
Winds: from the NW (320 degrees) at 20 MPH (17 knots; 8.7 m/s)
gusting to 31 MPH (27 knots; 13.9 m/s)
Visibility: 6 or more miles (10+ km)
Ceiling: at least 12,000 feet AGL
Clouds: sky clear below 12,000 feet AGL
Weather: no significant weather observed at this time

METAR text: UHWW 180730Z 32009G15MPS 9999 NSC 10/M09 Q1008 R25L/0///70 NOSIG RMK QFE755
Conditions at: UHWW (VLADIVOSTOK , RU) observed 0730 UTC 18 April 2019
Temperature: 10.0°C (50°F)
Dewpoint: -9.0°C (16°F) [RH = 25%]
Pressure (altimeter): 29.76 inches Hg (1008.0 mb)
Winds: from the NW (320 degrees) at 20 MPH (17 knots; 8.7 m/s)
gusting to 33 MPH (29 knots; 14.9 m/s)
Visibility: 6 or more miles (10+ km)
Ceiling: at least 12,000 feet AGL
Clouds: sky clear below 12,000 feet AGL
Weather: no significant weather observed at this time

METAR text: UHWW 180700Z 34010G16MPS 9999 NSC 11/M08 Q1007 R25L/0///70 NOSIG RMK QFE754
Conditions at: UHWW (VLADIVOSTOK , RU) observed 0700 UTC 18 April 2019
Temperature: 11.0°C (52°F)
Dewpoint: -8.0°C (18°F) [RH = 25%]
Pressure (altimeter): 29.73 inches Hg (1007.0 mb)
Winds: from the NNW (340 degrees) at 22 MPH (19 knots; 9.8 m/s)
gusting to 36 MPH (31 knots; 15.9 m/s)
Visibility: 6 or more miles (10+ km)
Ceiling: at least 12,000 feet AGL
Clouds: sky clear below 12,000 feet AGL
Weather: no significant weather observed at this time

METAR text: UHWW 180630Z 33010G15MPS 9999 NSC 11/M09 Q1006 R25L/0///70 NOSIG RMK QFE753
Conditions at: UHWW (VLADIVOSTOK , RU) observed 0630 UTC 18 April 2019
Temperature: 11.0°C (52°F)
Dewpoint: -9.0°C (16°F) [RH = 24%]
Pressure (altimeter): 29.70 inches Hg (1006.0 mb)
Winds: from the NNW (330 degrees) at 22 MPH (19 knots; 9.8 m/s)
gusting to 33 MPH (29 knots; 14.9 m/s)
Visibility: 6 or more miles (10+ km)
Ceiling: at least 12,000 feet AGL
Clouds: sky clear below 12,000 feet AGL
Weather: no significant weather observed at this time

METAR text: UHWW 180600Z 33011G16MPS 9999 NSC 11/M08 Q1005 R25L/0///70 TEMPO 34013G18MPS RMK QFE753
Conditions at: UHWW (VLADIVOSTOK , RU) observed 0600 UTC 18 April 2019
Temperature: 11.0°C (52°F)
Dewpoint: -8.0°C (18°F) [RH = 25%]
Pressure (altimeter): 29.68 inches Hg (1005.0 mb)
Winds: from the NNW (330 degrees) at 24 MPH (21 knots; 10.8 m/s)
gusting to 36 MPH (31 knots; 15.9 m/s)
Visibility: 6 or more miles (10+ km)
Ceiling: at least 12,000 feet AGL
Clouds: sky clear below 12,000 feet AGL
Weather: no significant weather observed at this time

METAR text: UHWW 180530Z 33010G17MPS 9999 NSC 12/M08 Q1005 WS R25L R25L/0///70 TEMPO 34013G18MPS RMK QFE752
Conditions at: UHWW (VLADIVOSTOK , RU) observed 0530 UTC 18 April 2019
Temperature: 12.0°C (54°F)
Dewpoint: -8.0°C (18°F) [RH = 24%]
Pressure (altimeter): 29.68 inches Hg (1005.0 mb)
Winds: from the NNW (330 degrees) at 22 MPH (19 knots; 9.8 m/s)
gusting to 38 MPH (33 knots; 17.0 m/s)
Visibility: 6 or more miles (10+ km)
Ceiling: at least 12,000 feet AGL
Clouds: sky clear below 12,000 feet AGL
Weather: no significant weather observed at this time

METAR text: UHWW 180500Z 33009G16MPS 9999 NSC 13/M06 Q1004 R25L/0///70 TEMPO 34013G18MPS RMK QFE752
Conditions at: UHWW (VLADIVOSTOK , RU) observed 0500 UTC 18 April 2019
Temperature: 13.0°C (55°F)
Dewpoint: -6.0°C (21°F) [RH = 26%]
Pressure (altimeter): 29.65 inches Hg (1004.0 mb)
Winds: from the NNW (330 degrees) at 20 MPH (17 knots; 8.7 m/s)
gusting to 36 MPH (31 knots; 15.9 m/s)
Visibility: 6 or more miles (10+ km)
Ceiling: at least 12,000 feet AGL
Clouds: sky clear below 12,000 feet AGL
Weather: no significant weather observed at this time

METAR text: UHWW 180430Z 33010G16MPS 9999 NSC 14/M05 Q1004 R25L/0///70 TEMPO 34013G18MPS RMK QFE751
Conditions at: UHWW (VLADIVOSTOK , RU) observed 0430 UTC 18 April 2019
Temperature: 14.0°C (57°F)
Dewpoint: -5.0°C (23°F) [RH = 26%]
Pressure (altimeter): 29.65 inches Hg (1004.0 mb)
Winds: from the NNW (330 degrees) at 22 MPH (19 knots; 9.8 m/s)
gusting to 36 MPH (31 knots; 15.9 m/s)
Visibility: 6 or more miles (10+ km)
Ceiling: at least 12,000 feet AGL
Clouds: sky clear below 12,000 feet AGL
Weather: no significant weather observed at this time

METAR text: UHWW 180400Z 33010G18MPS 9999 NSC 14/M05 Q1003 R25L/0///70 NOSIG RMK QFE751
Conditions at: UHWW (VLADIVOSTOK , RU) observed 0400 UTC 18 April 2019
Temperature: 14.0°C (57°F)
Dewpoint: -5.0°C (23°F) [RH = 26%]
Pressure (altimeter): 29.62 inches Hg (1003.0 mb)
Winds: from the NNW (330 degrees) at 22 MPH (19 knots; 9.8 m/s)
gusting to 40 MPH (35 knots; 18.0 m/s)
Visibility: 6 or more miles (10+ km)
Ceiling: at least 12,000 feet AGL
Clouds: sky clear below 12,000 feet AGL
Weather: no significant weather observed at this time

METAR text: UHWW 180330Z 35009G14MPS 9999 SCT033CB 13/M04 Q1002 R25L/0///70 TEMPO 34011G16MPS RMK QFE750
Conditions at: UHWW (VLADIVOSTOK , RU) observed 0330 UTC 18 April 2019
Temperature: 13.0°C (55°F)
Dewpoint: -4.0°C (25°F) [RH = 30%]
Pressure (altimeter): 29.59 inches Hg (1002.0 mb)
Winds: from the N (350 degrees) at 20 MPH (17 knots; 8.7 m/s)
gusting to 31 MPH (27 knots; 13.9 m/s)
Visibility: 6 or more miles (10+ km)
Ceiling: at least 12,000 feet AGL
Clouds: scattered clouds at 3300 feet AGL
Weather: no significant weather observed at this time

METAR text: UHWW 180300Z 35008G15MPS 9999 BKN033CB 12/M00 Q1002 R25L/0///70 TEMPO 34011G16MPS RMK QFE751
Conditions at: UHWW (VLADIVOSTOK , RU) observed 0300 UTC 18 April 2019
Temperature: 12.0°C (54°F)
Dewpoint: 0.0°C (32°F) [RH = 44%]
Pressure (altimeter): 29.59 inches Hg (1002.0 mb)
Winds: from the N (350 degrees) at 18 MPH (16 knots; 8.2 m/s)
gusting to 33 MPH (29 knots; 14.9 m/s)
Visibility: 6 or more miles (10+ km)
Ceiling: 3300 feet AGL
Clouds: broken clouds at 3300 feet AGL
Weather: no significant weather observed at this time

METAR text: UHWW 180230Z 27003G10MPS 230V340 9999 BKN033CB 13/04 Q1002 R25L/0///70 NOSIG RMK QFE750
Conditions at: UHWW (VLADIVOSTOK , RU) observed 0230 UTC 18 April 2019
Temperature: 13.0°C (55°F)
Dewpoint: 4.0°C (39°F) [RH = 54%]
Pressure (altimeter): 29.59 inches Hg (1002.0 mb)
Winds: from the W (270 degrees) at 7 MPH (6 knots; 3.1 m/s)
gusting to 22 MPH (19 knots; 9.8 m/s)
Visibility: 6 or more miles (10+ km)
Ceiling: 3300 feet AGL
Clouds: broken clouds at 3300 feet AGL
Weather: no significant weather observed at this time

METAR text: UHWW 180200Z 28002MPS 9999 BKN033CB 12/03 Q1002 R25L/0///70 NOSIG RMK QFE750
Conditions at: UHWW (VLADIVOSTOK , RU) observed 0200 UTC 18 April 2019
Temperature: 12.0°C (54°F)
Dewpoint: 3.0°C (37°F) [RH = 54%]
Pressure (altimeter): 29.59 inches Hg (1002.0 mb)
Winds: from the W (280 degrees) at 5 MPH (4 knots; 2.1 m/s)
Visibility: 6 or more miles (10+ km)
Ceiling: 3300 feet AGL
Clouds: broken clouds at 3300 feet AGL
Weather: no significant weather observed at this time

METAR text: UHWW 180130Z 00000MPS 9999 BKN033CB 11/03 Q1001 R25L/0///70 NOSIG RMK QFE750
Conditions at: UHWW (VLADIVOSTOK , RU) observed 0130 UTC 18 April 2019
Temperature: 11.0°C (52°F)
Dewpoint: 3.0°C (37°F) [RH = 58%]
Pressure (altimeter): 29.56 inches Hg (1001.0 mb)
Winds: calm
Visibility: 6 or more miles (10+ km)
Ceiling: 3300 feet AGL
Clouds: broken clouds at 3300 feet AGL
Weather: no significant weather observed at this time

METAR text: UHWW 180100Z 07001MPS 9999 BKN033CB 11/03 Q1001 R25L/0///70 NOSIG RMK QFE749
Conditions at: UHWW (VLADIVOSTOK , RU) observed 0100 UTC 18 April 2019
Temperature: 11.0°C (52°F)
Dewpoint: 3.0°C (37°F) [RH = 58%]
Pressure (altimeter): 29.56 inches Hg (1001.0 mb)
Winds: from the ENE (70 degrees) at 2 MPH (2 knots; 1.0 m/s)
Visibility: 6 or more miles (10+ km)
Ceiling: 3300 feet AGL
Clouds: broken clouds at 3300 feet AGL
Weather: no significant weather observed at this time

METAR text: UHWW 180030Z VRB01MPS 9999 BKN033CB 11/04 Q1000 R25L/0///70 NOSIG RMK QFE749
Conditions at: UHWW (VLADIVOSTOK , RU) observed 0030 UTC 18 April 2019
Temperature: 11.0°C (52°F)
Dewpoint: 4.0°C (39°F) [RH = 62%]
Pressure (altimeter): 29.53 inches Hg (1000.0 mb)
Winds: variable direction winds at 2 MPH (2 knots; 1.0 m/s)
Visibility: 6 or more miles (10+ km)
Ceiling: 3300 feet AGL
Clouds: broken clouds at 3300 feet AGL
Weather: no significant weather observed at this time

METAR text: UHWW 180000Z 07003MPS 9999 NSC 10/04 Q1000 R25L/0///70 NOSIG RMK QFE749
Conditions at: UHWW (VLADIVOSTOK , RU) observed 0000 UTC 18 April 2019
Temperature: 10.0°C (50°F)
Dewpoint: 4.0°C (39°F) [RH = 66%]
Pressure (altimeter): 29.53 inches Hg (1000.0 mb)
Winds: from the ENE (70 degrees) at 7 MPH (6 knots; 3.1 m/s)
Visibility: 6 or more miles (10+ km)
Ceiling: at least 12,000 feet AGL
Clouds: sky clear below 12,000 feet AGL
Weather: no significant weather observed at this time

METAR text: UHWW 172330Z 05002MPS 9999 NSC 10/04 Q1000 R25L/0///70 NOSIG RMK QFE749
Conditions at: UHWW (VLADIVOSTOK , RU) observed 2330 UTC 17 April 2019
Temperature: 10.0°C (50°F)
Dewpoint: 4.0°C (39°F) [RH = 66%]
Pressure (altimeter): 29.53 inches Hg (1000.0 mb)
Winds: from the NE (50 degrees) at 5 MPH (4 knots; 2.1 m/s)
Visibility: 6 or more miles (10+ km)
Ceiling: at least 12,000 feet AGL
Clouds: sky clear below 12,000 feet AGL
Weather: no significant weather observed at this time

METAR text: UHWW 172300Z VRB01MPS 9999 NSC 08/04 Q1000 R25L/0///70 NOSIG RMK QFE749
Conditions at: UHWW (VLADIVOSTOK , RU) observed 2300 UTC 17 April 2019
Temperature: 8.0°C (46°F)
Dewpoint: 4.0°C (39°F) [RH = 76%]
Pressure (altimeter): 29.53 inches Hg (1000.0 mb)
Winds: variable direction winds at 2 MPH (2 knots; 1.0 m/s)
Visibility: 6 or more miles (10+ km)
Ceiling: at least 12,000 feet AGL
Clouds: sky clear below 12,000 feet AGL
Weather: no significant weather observed at this time

METAR text: UHWW 172230Z 27002MPS 9999 NSC 08/04 Q1000 R25L/190065 NOSIG RMK QFE749
Conditions at: UHWW (VLADIVOSTOK , RU) observed 2230 UTC 17 April 2019
Temperature: 8.0°C (46°F)
Dewpoint: 4.0°C (39°F) [RH = 76%]
Pressure (altimeter): 29.53 inches Hg (1000.0 mb)
Winds: from the W (270 degrees) at 5 MPH (4 knots; 2.1 m/s)
Visibility: 6 or more miles (10+ km)
Ceiling: at least 12,000 feet AGL
Clouds: sky clear below 12,000 feet AGL
Weather: no significant weather observed at this time

METAR text: UHWW 172200Z 16003MPS 9999 NSC 08/03 Q1000 R25L/190065 NOSIG RMK QFE749
Conditions at: UHWW (VLADIVOSTOK , RU) observed 2200 UTC 17 April 2019
Temperature: 8.0°C (46°F)
Dewpoint: 3.0°C (37°F) [RH = 71%]
Pressure (altimeter): 29.53 inches Hg (1000.0 mb)
Winds: from the SSE (160 degrees) at 7 MPH (6 knots; 3.1 m/s)
Visibility: 6 or more miles (10+ km)
Ceiling: at least 12,000 feet AGL
Clouds: sky clear below 12,000 feet AGL
Weather: no significant weather observed at this time

METAR text: UHWW 172130Z VRB01MPS 9999 NSC 07/03 Q1000 R25L/190065 NOSIG RMK QFE749
Conditions at: UHWW (VLADIVOSTOK , RU) observed 2130 UTC 17 April 2019
Temperature: 7.0°C (45°F)
Dewpoint: 3.0°C (37°F) [RH = 76%]
Pressure (altimeter): 29.53 inches Hg (1000.0 mb)
Winds: variable direction winds at 2 MPH (2 knots; 1.0 m/s)
Visibility: 6 or more miles (10+ km)
Ceiling: at least 12,000 feet AGL
Clouds: sky clear below 12,000 feet AGL
Weather: no significant weather observed at this time

METAR text: UHWW 172100Z 04002MPS 9999 NSC 05/03 Q1000 R25L/290060 NOSIG RMK QFE749
Conditions at: UHWW (VLADIVOSTOK , RU) observed 2100 UTC 17 April 2019
Temperature: 5.0°C (41°F)
Dewpoint: 3.0°C (37°F) [RH = 87%]
Pressure (altimeter): 29.53 inches Hg (1000.0 mb)
Winds: from the NE (40 degrees) at 5 MPH (4 knots; 2.1 m/s)
Visibility: 6 or more miles (10+ km)
Ceiling: at least 12,000 feet AGL
Clouds: sky clear below 12,000 feet AGL
Weather: no significant weather observed at this time

METAR text: UHWW 172030Z 09001MPS 9999 NSC 07/03 Q1000 R25L/290060 NOSIG RMK QFE749
Conditions at: UHWW (VLADIVOSTOK , RU) observed 2030 UTC 17 April 2019
Temperature: 7.0°C (45°F)
Dewpoint: 3.0°C (37°F) [RH = 76%]
Pressure (altimeter): 29.53 inches Hg (1000.0 mb)
Winds: from the E (90 degrees) at 2 MPH (2 knots; 1.0 m/s)
Visibility: 6 or more miles (10+ km)
Ceiling: at least 12,000 feet AGL
Clouds: sky clear below 12,000 feet AGL
Weather: no significant weather observed at this time

METAR text: UHWW 172000Z 06002MPS 030V130 9999 NSC 07/03 Q0999 R25L/290060 NOSIG RMK QFE748
Conditions at: UHWW (VLADIVOSTOK , RU) observed 2000 UTC 17 April 2019
Temperature: 7.0°C (45°F)
Dewpoint: 3.0°C (37°F) [RH = 76%]
Pressure (altimeter): 29.50 inches Hg (999.0 mb)
Winds: from the ENE (60 degrees) at 5 MPH (4 knots; 2.1 m/s)
Visibility: 6 or more miles (10+ km)
Ceiling: at least 12,000 feet AGL
Clouds: sky clear below 12,000 feet AGL
Weather: no significant weather observed at this time

METAR text: UHWW 171930Z 10003MPS 9999 SCT040CB 09/03 Q1000 R25L/290060 NOSIG RMK QFE749
Conditions at: UHWW (VLADIVOSTOK , RU) observed 1930 UTC 17 April 2019
Temperature: 9.0°C (48°F)
Dewpoint: 3.0°C (37°F) [RH = 66%]
Pressure (altimeter): 29.53 inches Hg (1000.0 mb)
Winds: from the E (100 degrees) at 7 MPH (6 knots; 3.1 m/s)
Visibility: 6 or more miles (10+ km)
Ceiling: at least 12,000 feet AGL
Clouds: scattered clouds at 4000 feet AGL
Weather: no significant weather observed at this time

METAR text: UHWW 171900Z 09002MPS 9999 SCT040CB 08/04 Q1000 R25L/0///70 NOSIG RMK QFE749
Conditions at: UHWW (VLADIVOSTOK , RU) observed 1900 UTC 17 April 2019
Temperature: 8.0°C (46°F)
Dewpoint: 4.0°C (39°F) [RH = 76%]
Pressure (altimeter): 29.53 inches Hg (1000.0 mb)
Winds: from the E (90 degrees) at 5 MPH (4 knots; 2.1 m/s)
Visibility: 6 or more miles (10+ km)
Ceiling: at least 12,000 feet AGL
Clouds: scattered clouds at 4000 feet AGL
Weather: no significant weather observed at this time

METAR text: UHWW 171830Z 08004MPS 9999 -SHRA BKN040CB 08/03 Q1000 R25L/0///70 NOSIG RMK QFE749
Conditions at: UHWW (VLADIVOSTOK , RU) observed 1830 UTC 17 April 2019
Temperature: 8.0°C (46°F)
Dewpoint: 3.0°C (37°F) [RH = 71%]
Pressure (altimeter): 29.53 inches Hg (1000.0 mb)
Winds: from the E (80 degrees) at 9 MPH (8 knots; 4.1 m/s)
Visibility: 6 or more miles (10+ km)
Ceiling: 4000 feet AGL
Clouds: broken clouds at 4000 feet AGL
Weather: -SHRA  (light rain showers)

METAR text: UHWW 171800Z VRB01MPS 9000 -SHRA SCT040CB 09/02 Q1000 R25L/0///70 NOSIG RMK QFE749
Conditions at: UHWW (VLADIVOSTOK , RU) observed 1800 UTC 17 April 2019
Temperature: 9.0°C (48°F)
Dewpoint: 2.0°C (36°F) [RH = 61%]
Pressure (altimeter): 29.53 inches Hg (1000.0 mb)
Winds: variable direction winds at 2 MPH (2 knots; 1.0 m/s)
Visibility: 6 miles ( 9 km)
Ceiling: at least 12,000 feet AGL
Clouds: scattered clouds at 4000 feet AGL
Weather: -SHRA  (light rain showers)

METAR text: UHWW 171730Z 23002MPS 9999 NSC 09/00 Q1001 R25L/0///70 NOSIG RMK QFE749
Conditions at: UHWW (VLADIVOSTOK , RU) observed 1730 UTC 17 April 2019
Temperature: 9.0°C (48°F)
Dewpoint: 0.0°C (32°F) [RH = 53%]
Pressure (altimeter): 29.56 inches Hg (1001.0 mb)
Winds: from the SW (230 degrees) at 5 MPH (4 knots; 2.1 m/s)
Visibility: 6 or more miles (10+ km)
Ceiling: at least 12,000 feet AGL
Clouds: sky clear below 12,000 feet AGL
Weather: no significant weather observed at this time

METAR text: UHWW 171700Z 21002MPS 170V290 9999 NSC 10/M00 Q1001 R25L/0///70 NOSIG RMK QFE749
Conditions at: UHWW (VLADIVOSTOK , RU) observed 1700 UTC 17 April 2019
Temperature: 10.0°C (50°F)
Dewpoint: 0.0°C (32°F) [RH = 50%]
Pressure (altimeter): 29.56 inches Hg (1001.0 mb)
Winds: from the SSW (210 degrees) at 5 MPH (4 knots; 2.1 m/s)
Visibility: 6 or more miles (10+ km)
Ceiling: at least 12,000 feet AGL
Clouds: sky clear below 12,000 feet AGL
Weather: no significant weather observed at this time

METAR text: UHWW 171630Z VRB01MPS 9999 NSC 10/M00 Q1000 R25L/0///70 NOSIG RMK QFE749
Conditions at: UHWW (VLADIVOSTOK , RU) observed 1630 UTC 17 April 2019
Temperature: 10.0°C (50°F)
Dewpoint: 0.0°C (32°F) [RH = 50%]
Pressure (altimeter): 29.53 inches Hg (1000.0 mb)
Winds: variable direction winds at 2 MPH (2 knots; 1.0 m/s)
Visibility: 6 or more miles (10+ km)
Ceiling: at least 12,000 feet AGL
Clouds: sky clear below 12,000 feet AGL
Weather: no significant weather observed at this time

METAR text: UHWW 171600Z 17002MPS 130V210 9999 NSC 11/M01 Q1000 R25L/0///70 NOSIG RMK QFE749
Conditions at: UHWW (VLADIVOSTOK , RU) observed 1600 UTC 17 April 2019
Temperature: 11.0°C (52°F)
Dewpoint: -1.0°C (30°F) [RH = 43%]
Pressure (altimeter): 29.53 inches Hg (1000.0 mb)
Winds: from the S (170 degrees) at 5 MPH (4 knots; 2.1 m/s)
Visibility: 6 or more miles (10+ km)
Ceiling: at least 12,000 feet AGL
Clouds: sky clear below 12,000 feet AGL
Weather: no significant weather observed at this time

METAR text: UHWW 171530Z 17004MPS 130V210 9999 NSC 12/M01 Q1001 R25L/0///70 NOSIG RMK QFE749
Conditions at: UHWW (VLADIVOSTOK , RU) observed 1530 UTC 17 April 2019
Temperature: 12.0°C (54°F)
Dewpoint: -1.0°C (30°F) [RH = 40%]
Pressure (altimeter): 29.56 inches Hg (1001.0 mb)
Winds: from the S (170 degrees) at 9 MPH (8 knots; 4.1 m/s)
Visibility: 6 or more miles (10+ km)
Ceiling: at least 12,000 feet AGL
Clouds: sky clear below 12,000 feet AGL
Weather: no significant weather observed at this time

METAR text: UHWW 171500Z VRB02MPS 9999 NSC 10/M01 Q1001 R25L/0///70 NOSIG RMK QFE750
Conditions at: UHWW (VLADIVOSTOK , RU) observed 1500 UTC 17 April 2019
Temperature: 10.0°C (50°F)
Dewpoint: -1.0°C (30°F) [RH = 46%]
Pressure (altimeter): 29.56 inches Hg (1001.0 mb)
Winds: variable direction winds at 5 MPH (4 knots; 2.1 m/s)
Visibility: 6 or more miles (10+ km)
Ceiling: at least 12,000 feet AGL
Clouds: sky clear below 12,000 feet AGL
Weather: no significant weather observed at this time

METAR text: UHWW 171430Z 11004MPS 9999 NSC 10/M01 Q1002 R25L/0///70 NOSIG RMK QFE750
Conditions at: UHWW (VLADIVOSTOK , RU) observed 1430 UTC 17 April 2019
Temperature: 10.0°C (50°F)
Dewpoint: -1.0°C (30°F) [RH = 46%]
Pressure (altimeter): 29.59 inches Hg (1002.0 mb)
Winds: from the ESE (110 degrees) at 9 MPH (8 knots; 4.1 m/s)
Visibility: 6 or more miles (10+ km)
Ceiling: at least 12,000 feet AGL
Clouds: sky clear below 12,000 feet AGL
Weather: no significant weather observed at this time

METAR text: UHWW 171400Z VRB01MPS 9999 NSC 08/00 Q1002 R25L/0///70 NOSIG RMK QFE750
Conditions at: UHWW (VLADIVOSTOK , RU) observed 1400 UTC 17 April 2019
Temperature: 8.0°C (46°F)
Dewpoint: 0.0°C (32°F) [RH = 57%]
Pressure (altimeter): 29.59 inches Hg (1002.0 mb)
Winds: variable direction winds at 2 MPH (2 knots; 1.0 m/s)
Visibility: 6 or more miles (10+ km)
Ceiling: at least 12,000 feet AGL
Clouds: sky clear below 12,000 feet AGL
Weather: no significant weather observed at this time

METAR text: UHWW 171330Z 00000MPS 9999 NSC 08/00 Q1002 R25L/0///70 NOSIG RMK QFE750
Conditions at: UHWW (VLADIVOSTOK , RU) observed 1330 UTC 17 April 2019
Temperature: 8.0°C (46°F)
Dewpoint: 0.0°C (32°F) [RH = 57%]
Pressure (altimeter): 29.59 inches Hg (1002.0 mb)
Winds: calm
Visibility: 6 or more miles (10+ km)
Ceiling: at least 12,000 feet AGL
Clouds: sky clear below 12,000 feet AGL
Weather: no significant weather observed at this time

METAR text: UHWW 171300Z 10002MPS 9999 NSC 09/00 Q1002 R25L/0///70 NOSIG RMK QFE751
Conditions at: UHWW (VLADIVOSTOK , RU) observed 1300 UTC 17 April 2019
Temperature: 9.0°C (48°F)
Dewpoint: 0.0°C (32°F) [RH = 53%]
Pressure (altimeter): 29.59 inches Hg (1002.0 mb)
Winds: from the E (100 degrees) at 5 MPH (4 knots; 2.1 m/s)
Visibility: 6 or more miles (10+ km)
Ceiling: at least 12,000 feet AGL
Clouds: sky clear below 12,000 feet AGL
Weather: no significant weather observed at this time

METAR text: UHWW 171230Z 10004MPS 9999 NSC 09/M00 Q1003 R25L/0///70 NOSIG RMK QFE751
Conditions at: UHWW (VLADIVOSTOK , RU) observed 1230 UTC 17 April 2019
Temperature: 9.0°C (48°F)
Dewpoint: 0.0°C (32°F) [RH = 53%]
Pressure (altimeter): 29.62 inches Hg (1003.0 mb)
Winds: from the E (100 degrees) at 9 MPH (8 knots; 4.1 m/s)
Visibility: 6 or more miles (10+ km)
Ceiling: at least 12,000 feet AGL
Clouds: sky clear below 12,000 feet AGL
Weather: no significant weather observed at this time

METAR text: UHWW 171200Z VRB01MPS 9999 NSC 09/01 Q1003 R07R/0///70 NOSIG RMK QFE752
Conditions at: UHWW (VLADIVOSTOK , RU) observed 1200 UTC 17 April 2019
Temperature: 9.0°C (48°F)
Dewpoint: 1.0°C (34°F) [RH = 57%]
Pressure (altimeter): 29.62 inches Hg (1003.0 mb)
Winds: variable direction winds at 2 MPH (2 knots; 1.0 m/s)
Visibility: 6 or more miles (10+ km)
Ceiling: at least 12,000 feet AGL
Clouds: sky clear below 12,000 feet AGL
Weather: no significant weather observed at this time

METAR text: UHWW 171130Z 12006MPS 9999 NSC 09/01 Q1004 R25L/0///70 NOSIG RMK QFE751
Conditions at: UHWW (VLADIVOSTOK , RU) observed 1130 UTC 17 April 2019
Temperature: 9.0°C (48°F)
Dewpoint: 1.0°C (34°F) [RH = 57%]
Pressure (altimeter): 29.65 inches Hg (1004.0 mb)
Winds: from the ESE (120 degrees) at 14 MPH (12 knots; 6.2 m/s)
Visibility: 6 or more miles (10+ km)
Ceiling: at least 12,000 feet AGL
Clouds: sky clear below 12,000 feet AGL
Weather: no significant weather observed at this time

METAR text: UHWW 171100Z 14002MPS 9999 NSC 09/M00 Q1003 R25L/0///70 NOSIG RMK QFE751
Conditions at: UHWW (VLADIVOSTOK , RU) observed 1100 UTC 17 April 2019
Temperature: 9.0°C (48°F)
Dewpoint: 0.0°C (32°F) [RH = 53%]
Pressure (altimeter): 29.62 inches Hg (1003.0 mb)
Winds: from the SE (140 degrees) at 5 MPH (4 knots; 2.1 m/s)
Visibility: 6 or more miles (10+ km)
Ceiling: at least 12,000 feet AGL
Clouds: sky clear below 12,000 feet AGL
Weather: no significant weather observed at this time

METAR text: UHWW 171030Z 10002MPS 9999 NSC 09/02 Q1004 R25L/0///70 NOSIG RMK QFE751
Conditions at: UHWW (VLADIVOSTOK , RU) observed 1030 UTC 17 April 2019
Temperature: 9.0°C (48°F)
Dewpoint: 2.0°C (36°F) [RH = 61%]
Pressure (altimeter): 29.65 inches Hg (1004.0 mb)
Winds: from the E (100 degrees) at 5 MPH (4 knots; 2.1 m/s)
Visibility: 6 or more miles (10+ km)
Ceiling: at least 12,000 feet AGL
Clouds: sky clear below 12,000 feet AGL
Weather: no significant weather observed at this time

METAR text: UHWW 171000Z 08002MPS 9999 NSC 10/01 Q1004 R25L/0///70 NOSIG RMK QFE751
Conditions at: UHWW (VLADIVOSTOK , RU) observed 1000 UTC 17 April 2019
Temperature: 10.0°C (50°F)
Dewpoint: 1.0°C (34°F) [RH = 53%]
Pressure (altimeter): 29.65 inches Hg (1004.0 mb)
Winds: from the E (80 degrees) at 5 MPH (4 knots; 2.1 m/s)
Visibility: 6 or more miles (10+ km)
Ceiling: at least 12,000 feet AGL
Clouds: sky clear below 12,000 feet AGL
Weather: no significant weather observed at this time

METAR text: UHWW 170930Z 19004MPS 9999 NSC 14/M05 Q1004 R25L/0///70 NOSIG RMK QFE751
Conditions at: UHWW (VLADIVOSTOK , RU) observed 0930 UTC 17 April 2019
Temperature: 14.0°C (57°F)
Dewpoint: -5.0°C (23°F) [RH = 26%]
Pressure (altimeter): 29.65 inches Hg (1004.0 mb)
Winds: from the S (190 degrees) at 9 MPH (8 knots; 4.1 m/s)
Visibility: 6 or more miles (10+ km)
Ceiling: at least 12,000 feet AGL
Clouds: sky clear below 12,000 feet AGL
Weather: no significant weather observed at this time

METAR text: UHWW 170900Z 18005MPS 9999 NSC 16/M06 Q1003 R25L/0///70 NOSIG RMK QFE751
Conditions at: UHWW (VLADIVOSTOK , RU) observed 0900 UTC 17 April 2019
Temperature: 16.0°C (61°F)
Dewpoint: -6.0°C (21°F) [RH = 21%]
Pressure (altimeter): 29.62 inches Hg (1003.0 mb)
Winds: from the S (180 degrees) at 12 MPH (10 knots; 5.1 m/s)
Visibility: 6 or more miles (10+ km)
Ceiling: at least 12,000 feet AGL
Clouds: sky clear below 12,000 feet AGL
Weather: no significant weather observed at this time

METAR text: UHWW 170830Z 15004MPS 130V200 9999 NSC 17/M03 Q1003 R25L/0///70 NOSIG RMK QFE751
Conditions at: UHWW (VLADIVOSTOK , RU) observed 0830 UTC 17 April 2019
Temperature: 17.0°C (63°F)
Dewpoint: -3.0°C (27°F) [RH = 25%]
Pressure (altimeter): 29.62 inches Hg (1003.0 mb)
Winds: from the SSE (150 degrees) at 9 MPH (8 knots; 4.1 m/s)
Visibility: 6 or more miles (10+ km)
Ceiling: at least 12,000 feet AGL
Clouds: sky clear below 12,000 feet AGL
Weather: no significant weather observed at this time

METAR text: UHWW 170800Z 19004MPS 9999 NSC 18/M06 Q1003 R25L/0///70 NOSIG RMK QFE751
Conditions at: UHWW (VLADIVOSTOK , RU) observed 0800 UTC 17 April 2019
Temperature: 18.0°C (64°F)
Dewpoint: -6.0°C (21°F) [RH = 19%]
Pressure (altimeter): 29.62 inches Hg (1003.0 mb)
Winds: from the S (190 degrees) at 9 MPH (8 knots; 4.1 m/s)
Visibility: 6 or more miles (10+ km)
Ceiling: at least 12,000 feet AGL
Clouds: sky clear below 12,000 feet AGL
Weather: no significant weather observed at this time

METAR text: UHWW 170730Z 22005MPS 9999 NSC 18/M05 Q1003 R25L/0///70 NOSIG RMK QFE751
Conditions at: UHWW (VLADIVOSTOK , RU) observed 0730 UTC 17 April 2019
Temperature: 18.0°C (64°F)
Dewpoint: -5.0°C (23°F) [RH = 20%]
Pressure (altimeter): 29.62 inches Hg (1003.0 mb)
Winds: from the SW (220 degrees) at 12 MPH (10 knots; 5.1 m/s)
Visibility: 6 or more miles (10+ km)
Ceiling: at least 12,000 feet AGL
Clouds: sky clear below 12,000 feet AGL
Weather: no significant weather observed at this time

METAR text: UHWW 170700Z 23006MPS 9999 NSC 19/M03 Q1003 R25L/0///70 NOSIG RMK QFE751
Conditions at: UHWW (VLADIVOSTOK , RU) observed 0700 UTC 17 April 2019
Temperature: 19.0°C (66°F)
Dewpoint: -3.0°C (27°F) [RH = 22%]
Pressure (altimeter): 29.62 inches Hg (1003.0 mb)
Winds: from the SW (230 degrees) at 14 MPH (12 knots; 6.2 m/s)
Visibility: 6 or more miles (10+ km)
Ceiling: at least 12,000 feet AGL
Clouds: sky clear below 12,000 feet AGL
Weather: no significant weather observed at this time

METAR text: UHWW 170630Z 23006MPS 9999 NSC 20/M04 Q1002 R25L/0///70 NOSIG RMK QFE751
Conditions at: UHWW (VLADIVOSTOK , RU) observed 0630 UTC 17 April 2019
Temperature: 20.0°C (68°F)
Dewpoint: -4.0°C (25°F) [RH = 19%]
Pressure (altimeter): 29.59 inches Hg (1002.0 mb)
Winds: from the SW (230 degrees) at 14 MPH (12 knots; 6.2 m/s)
Visibility: 6 or more miles (10+ km)
Ceiling: at least 12,000 feet AGL
Clouds: sky clear below 12,000 feet AGL
Weather: no significant weather observed at this time

Forecast for: UHWW (VLADIVOSTOK , RU)
Text: TAF UHWW 181700Z 1818/1918 32003MPS 9999 BKN020CB
Forecast period: 1800 UTC 18 April 2019 to 1800 UTC 19 April 2019
Forecast type: FROM: standard forecast or significant change
Winds: from the NW (320 degrees) at 7 MPH (6 knots; 3.1 m/s)
Visibility: 6 or more miles 10+ km)
Ceiling: 2000 feet AGL
Clouds: broken clouds at 2000 feet AGL
Weather: no significant weather forecast for this period
Text: TEMPO 1818/1912 33009G14MPS 5000 -SHRA BKN015CB
Forecast period: 1800 UTC 18 April 2019 to 1200 UTC 19 April 2019
Forecast type: TEMPORARY: The following changes expected for less than half the time period
Winds: from the NNW (330 degrees) at 20 MPH (17 knots; 8.7 m/s)
gusting to 31 MPH (27 knots; 13.9 m/s)
Visibility: 3 miles (5 km)
Ceiling: 1500 feet AGL
Clouds: broken clouds at 1500 feet AGL
Weather: -SHRA  (light rain showers)